createdAt,value
2019-04-20T00:01:32.073Z,20.27
2019-04-20T00:04:03.108Z,19.23
2019-04-20T00:06:41.679Z,18.42
2019-04-20T00:09:15.858Z,18.80
2019-04-20T00:11:59.189Z,18.95
2019-04-20T00:14:26.336Z,17.77
2019-04-20T00:16:57.048Z,18.10
2019-04-20T00:19:37.526Z,17.50
2019-04-20T00:22:36.717Z,17.52
2019-04-20T00:25:24.056Z,17.45
2019-04-20T00:28:24.045Z,17.65
2019-04-20T00:31:01.106Z,17.50
2019-04-20T00:33:30.931Z,18.27
2019-04-20T00:35:53.249Z,18.20
2019-04-20T00:38:33.562Z,18.05
2019-04-20T00:41:08.575Z,17.90
2019-04-20T00:43:41.709Z,19.52
2019-04-20T00:46:21.900Z,19.73
2019-04-20T00:48:55.881Z,20.57
2019-04-20T00:51:43.316Z,20.45
2019-04-20T00:54:00.908Z,23.65
2019-04-20T00:56:35.227Z,23.77
2019-04-20T00:59:20.781Z,20.20
2019-04-20T01:02:07.410Z,20.23
2019-04-20T01:04:40.717Z,19.98
2019-04-20T01:07:23.237Z,20.68
2019-04-20T01:10:00.351Z,20.25
2019-04-20T01:12:36.877Z,18.70
2019-04-20T01:15:16.838Z,19.55
2019-04-20T01:17:46.259Z,19.32
2019-04-20T01:20:22.611Z,17.67
2019-04-20T01:23:03.287Z,18.75
2019-04-20T01:25:36.023Z,17.82
2019-04-20T01:28:24.784Z,16.65
2019-04-20T01:30:50.854Z,17.85
2019-04-20T01:33:35.520Z,17.60
2019-04-20T01:36:09.046Z,18.95
2019-04-20T01:38:43.565Z,18.48
2019-04-20T01:41:03.371Z,19.25
2019-04-20T01:43:37.442Z,19.40
2019-04-20T01:46:15.672Z,18.70
2019-04-20T01:48:48.198Z,18.80
2019-04-20T01:51:27.279Z,20.80
2019-04-20T01:54:17.734Z,19.05
2019-04-20T01:56:47.670Z,20.43
2019-04-20T01:59:34.812Z,19.82
2019-04-20T02:02:21.185Z,20.23
2019-04-20T02:05:00.627Z,21.10
2019-04-20T02:07:38.383Z,21.55
2019-04-20T02:10:09.850Z,22.15
2019-04-20T02:12:43.997Z,21.23
2019-04-20T02:15:26.912Z,23.47
2019-04-20T02:18:10.254Z,22.40
2019-04-20T02:20:44.266Z,23.02
2019-04-20T02:23:17.301Z,20.45
2019-04-20T02:25:39.805Z,20.60
2019-04-20T02:28:27.724Z,21.35
2019-04-20T02:31:25.011Z,20.30
2019-04-20T02:34:03.563Z,20.48
2019-04-20T02:39:39.498Z,18.37
2019-04-20T02:42:20.257Z,19.23
2019-04-20T02:44:40.375Z,18.95
2019-04-20T02:52:28.763Z,18.10
2019-04-20T02:55:04.109Z,18.65
2019-04-20T03:02:27.466Z,19.55
2019-04-20T03:04:56.169Z,18.82
2019-04-20T03:07:34.115Z,18.98
2019-04-20T03:10:17.775Z,18.92
2019-04-20T03:12:50.725Z,20.00
2019-04-20T03:15:29.570Z,20.27
2019-04-20T03:18:03.385Z,19.90
2019-04-20T03:20:41.739Z,19.25
2019-04-20T03:23:23.295Z,20.37
2019-04-20T03:26:03.592Z,19.35
2019-04-20T03:28:56.767Z,19.52
2019-04-20T03:31:58.731Z,20.55
2019-04-20T03:34:40.950Z,20.23
2019-04-20T03:36:53.244Z,24.18
2019-04-20T03:39:25.933Z,20.08
2019-04-20T03:41:43.435Z,19.32
2019-04-20T03:44:19.216Z,19.35
2019-04-20T03:46:57.191Z,18.55
2019-04-20T03:49:52.498Z,17.62
2019-04-20T03:52:42.325Z,19.27
2019-04-20T03:55:26.321Z,18.82
2019-04-20T03:58:19.727Z,17.73
2019-04-20T04:01:19.904Z,19.20
2019-04-20T04:04:10.635Z,17.12
2019-04-20T04:06:34.018Z,18.35
2019-04-20T04:09:14.725Z,19.35
2019-04-20T04:11:51.491Z,19.37
2019-04-20T04:14:11.597Z,19.90
2019-04-20T04:16:49.813Z,19.62
2019-04-20T04:19:25.267Z,19.48
2019-04-20T04:22:11.114Z,19.32
2019-04-20T04:24:40.974Z,19.77
2019-04-20T04:27:28.491Z,23.00
2019-04-20T04:30:01.867Z,23.98
2019-04-20T04:32:58.891Z,22.17
2019-04-20T04:35:09.198Z,22.15
2019-04-20T04:37:47.307Z,23.67
2019-04-20T04:40:31.644Z,22.93
2019-04-20T04:43:02.245Z,22.80
2019-04-20T04:45:19.544Z,21.68
2019-04-20T04:47:52.026Z,21.48
2019-04-20T04:50:29.887Z,21.52
2019-04-20T04:53:09.058Z,21.93
2019-04-20T04:55:47.772Z,21.12
2019-04-20T04:58:13.052Z,21.90
2019-04-20T05:00:46.770Z,19.77
2019-04-20T05:03:41.379Z,19.50
2019-04-20T05:06:31.884Z,20.37
2019-04-20T05:08:58.484Z,20.00
2019-04-20T05:11:31.938Z,22.05
2019-04-20T05:14:11.007Z,21.42
2019-04-20T05:16:58.270Z,22.07
2019-04-20T05:19:41.239Z,22.45
2019-04-20T05:22:21.832Z,23.47
2019-04-20T05:25:05.809Z,22.95
2019-04-20T05:27:51.179Z,24.25
2019-04-20T05:30:08.148Z,23.50
2019-04-20T05:32:51.426Z,23.07
2019-04-20T05:35:39.134Z,23.12
2019-04-20T05:38:13.223Z,21.45
2019-04-20T05:40:47.211Z,20.43
2019-04-20T05:43:41.494Z,20.77
2019-04-20T05:46:26.393Z,19.73
2019-04-20T05:48:57.865Z,20.32
2019-04-20T05:51:37.982Z,18.82
2019-04-20T05:54:10.450Z,20.40
2019-04-20T05:56:46.849Z,19.62
2019-04-20T05:59:23.490Z,19.85
2019-04-20T06:02:03.559Z,20.02
2019-04-20T06:04:49.069Z,20.43
2019-04-20T06:06:59.643Z,19.85
2019-04-20T06:09:48.145Z,19.92
2019-04-20T06:12:21.190Z,20.25
2019-04-20T06:15:04.556Z,20.62
2019-04-20T06:18:15.055Z,20.62
2019-04-20T06:20:52.517Z,19.77
2019-04-20T06:23:45.243Z,19.17
2019-04-20T06:26:27.054Z,18.27
2019-04-20T06:28:42.606Z,18.80
2019-04-20T06:31:34.182Z,19.00
2019-04-20T06:37:16.134Z,16.93
2019-04-20T06:39:40.396Z,16.77
2019-04-20T06:44:43.904Z,16.52
2019-04-20T06:47:24.904Z,16.57
2019-04-20T06:49:58.834Z,17.23
2019-04-20T06:52:49.197Z,14.93
2019-04-20T06:55:34.433Z,16.10
2019-04-20T06:58:01.523Z,16.60
2019-04-20T07:00:44.503Z,16.55
2019-04-20T07:03:17.798Z,17.55
2019-04-20T07:06:02.518Z,16.27
2019-04-20T07:08:40.645Z,16.12
2019-04-20T07:11:08.902Z,17.05
2019-04-20T07:13:28.561Z,17.77
2019-04-20T07:16:21.502Z,17.23
2019-04-20T07:19:09.217Z,16.15
2019-04-20T07:24:53.145Z,15.90
2019-04-20T07:27:22.914Z,16.20
2019-04-20T07:29:58.927Z,15.72
2019-04-20T07:32:38.798Z,15.32
2019-04-20T07:35:11.996Z,16.32
2019-04-20T07:38:16.202Z,16.52
2019-04-20T07:40:22.419Z,15.08
2019-04-20T07:48:13.715Z,16.20
2019-04-20T07:50:37.594Z,15.32
2019-04-20T07:53:17.136Z,14.28
2019-04-20T07:55:54.215Z,13.85
2019-04-20T07:58:23.112Z,13.22
2019-04-20T08:01:14.892Z,12.33
2019-04-20T08:03:58.770Z,12.58
2019-04-20T08:06:21.337Z,12.53
2019-04-20T08:09:02.791Z,12.03
2019-04-20T08:11:41.067Z,12.35
2019-04-20T08:14:18.087Z,10.32
2019-04-20T08:19:23.364Z,9.25
2019-04-20T08:21:57.135Z,9.45
2019-04-20T08:24:34.584Z,10.25
2019-04-20T08:27:02.746Z,10.80
2019-04-20T08:29:50.128Z,8.75
2019-04-20T08:32:53.865Z,7.70
2019-04-20T08:35:39.254Z,9.00
2019-04-20T08:38:47.251Z,9.18
2019-04-20T08:40:43.486Z,8.75
2019-04-20T08:43:32.696Z,7.58
2019-04-20T08:45:57.083Z,8.33
2019-04-20T08:48:29.860Z,8.00
2019-04-20T08:50:57.787Z,7.60
2019-04-20T08:53:36.379Z,7.65
2019-04-20T08:56:03.291Z,7.42
2019-04-20T08:58:24.980Z,6.58
2019-04-20T09:01:03.348Z,5.62
2019-04-20T09:03:48.784Z,5.40
2019-04-20T09:06:25.225Z,5.62
2019-04-20T09:08:55.468Z,5.28
2019-04-20T09:11:45.212Z,4.33
2019-04-20T09:13:58.465Z,5.25
2019-04-20T09:16:40.907Z,4.83
2019-04-20T09:19:07.643Z,5.22
2019-04-20T09:21:46.179Z,5.20
2019-04-20T09:24:38.283Z,5.33
2019-04-20T09:27:05.000Z,5.53
2019-04-20T09:29:35.745Z,5.40
2019-04-20T09:32:23.544Z,5.70
2019-04-20T09:35:00.123Z,5.08
2019-04-20T09:37:43.069Z,5.87
2019-04-20T09:40:25.597Z,5.37
2019-04-20T09:43:00.336Z,5.70
2019-04-20T09:45:48.597Z,6.12
2019-04-20T09:48:31.231Z,6.67
2019-04-20T09:51:16.957Z,6.45
2019-04-20T09:53:43.125Z,7.05
2019-04-20T09:56:27.486Z,6.85
2019-04-20T09:59:00.824Z,6.25
2019-04-20T10:01:29.210Z,7.10
2019-04-20T10:03:53.186Z,5.90
2019-04-20T10:06:30.099Z,6.00
2019-04-20T10:09:04.794Z,6.72
2019-04-20T10:11:37.373Z,6.80
2019-04-20T10:14:12.329Z,6.42
2019-04-20T10:16:47.432Z,6.42
2019-04-20T10:19:26.689Z,6.95
2019-04-20T10:21:57.043Z,6.85
2019-04-20T10:24:30.730Z,6.55
2019-04-20T10:27:06.217Z,6.25
2019-04-20T10:29:40.151Z,6.62
2019-04-20T10:32:15.842Z,6.45
2019-04-20T10:34:48.831Z,6.80
2019-04-20T10:37:25.724Z,6.78
2019-04-20T10:40:00.588Z,6.72
2019-04-20T10:42:35.126Z,6.65
2019-04-20T10:45:10.963Z,6.72
2019-04-20T10:47:45.299Z,6.37
2019-04-20T10:50:18.854Z,6.72
2019-04-20T10:52:53.987Z,5.87
2019-04-20T10:55:29.370Z,6.15
2019-04-20T10:58:03.735Z,6.87
2019-04-20T11:00:46.056Z,6.47
2019-04-20T11:03:21.083Z,7.17
2019-04-20T11:05:54.388Z,6.70
2019-04-20T11:08:28.647Z,6.92
2019-04-20T11:11:11.910Z,6.15
2019-04-20T11:13:39.374Z,6.62
2019-04-20T11:16:12.943Z,6.05
2019-04-20T11:18:47.330Z,5.53
2019-04-20T11:21:22.430Z,5.58
2019-04-20T11:23:58.405Z,5.72
2019-04-20T11:26:35.379Z,5.20
2019-04-20T11:29:08.370Z,6.00
2019-04-20T11:31:48.806Z,5.62
2019-04-20T11:34:23.543Z,5.35
2019-04-20T11:36:53.455Z,5.15
2019-04-20T11:39:27.199Z,5.03
2019-04-20T11:42:01.564Z,5.10
2019-04-20T11:44:36.475Z,5.60
2019-04-20T11:47:10.680Z,5.22
2019-04-20T11:49:45.789Z,4.78
2019-04-20T11:52:22.903Z,4.72
2019-04-20T11:54:54.814Z,4.70
2019-04-20T11:57:37.603Z,4.47
2019-04-20T12:00:13.153Z,4.62
2019-04-20T12:03:16.033Z,4.33
2019-04-20T12:05:46.686Z,4.40
2019-04-20T12:08:18.482Z,4.70
2019-04-20T12:10:57.930Z,4.00
2019-04-20T12:13:29.375Z,4.33
2019-04-20T12:16:03.548Z,4.00
2019-04-20T12:18:37.963Z,4.10
2019-04-20T12:21:12.732Z,4.45
2019-04-20T12:23:46.552Z,3.80
2019-04-20T12:26:20.665Z,4.05
2019-04-20T12:28:53.824Z,3.90
2019-04-20T12:31:29.391Z,3.77
2019-04-20T12:34:04.470Z,4.75
2019-04-20T12:36:37.446Z,4.05
2019-04-20T12:39:13.359Z,3.83
2019-04-20T12:41:53.693Z,3.70
2019-04-20T12:44:23.680Z,3.60
2019-04-20T12:46:57.427Z,3.75
2019-04-20T12:49:31.747Z,3.45
2019-04-20T12:52:06.539Z,3.40
2019-04-20T12:54:42.654Z,2.80
2019-04-20T12:57:16.536Z,2.70
2019-04-20T12:59:51.241Z,3.08
2019-04-20T13:02:25.616Z,3.67
2019-04-20T13:04:59.586Z,3.17
2019-04-20T13:07:40.562Z,2.90
2019-04-20T13:10:09.866Z,3.42
2019-04-20T13:13:05.400Z,3.25
2019-04-20T13:16:00.633Z,3.40
2019-04-20T13:18:59.368Z,2.75
2019-04-20T13:21:34.760Z,2.90
2019-04-20T13:24:09.267Z,3.25
2019-04-20T13:26:42.906Z,3.85
2019-04-20T13:29:17.142Z,3.25
2019-04-20T13:31:52.057Z,3.50
2019-04-20T13:34:26.477Z,3.50
2019-04-20T13:37:00.217Z,4.92
2019-04-20T13:39:33.504Z,4.50
2019-04-20T13:42:13.958Z,4.30
2019-04-20T13:44:43.236Z,3.87
2019-04-20T13:47:16.824Z,4.92
2019-04-20T13:49:51.184Z,3.77
2019-04-20T13:52:26.837Z,2.92
2019-04-20T13:55:02.296Z,6.78
2019-04-20T13:57:42.235Z,2.30
2019-04-20T14:00:55.396Z,2.70
2019-04-20T14:03:30.929Z,9.50
2019-04-20T14:06:04.681Z,7.03
2019-04-20T14:08:41.241Z,2.40
2019-04-20T14:11:15.666Z,2.65
2019-04-20T14:13:54.786Z,2.52
2019-04-20T14:16:25.124Z,3.10
2019-04-20T14:18:58.878Z,2.37
2019-04-20T14:21:32.237Z,2.25
2019-04-20T14:24:06.790Z,2.00
2019-04-20T14:26:42.892Z,2.17
2019-04-20T14:29:16.969Z,2.35
2019-04-20T14:31:52.179Z,2.30
2019-04-20T14:34:26.892Z,2.80
2019-04-20T14:37:01.048Z,2.20
2019-04-20T14:39:36.377Z,2.47
2019-04-20T14:42:10.076Z,2.40
2019-04-20T14:44:46.004Z,2.35
2019-04-20T14:47:21.703Z,2.40
2019-04-20T14:49:58.228Z,3.37
2019-04-20T14:52:29.707Z,2.72
2019-04-20T14:55:03.734Z,2.30
2019-04-20T14:57:39.355Z,2.08
2019-04-20T15:00:31.836Z,2.08
2019-04-20T15:03:23.991Z,2.30
2019-04-20T15:06:02.037Z,2.15
2019-04-20T15:08:36.778Z,2.33
2019-04-20T15:11:10.779Z,2.37
2019-04-20T15:13:45.139Z,2.45
2019-04-20T15:16:18.792Z,2.00
2019-04-20T15:19:09.703Z,2.40
2019-04-20T15:21:45.730Z,2.60
2019-04-20T15:24:19.723Z,2.27
2019-04-20T15:26:54.261Z,2.30
2019-04-20T15:29:28.602Z,2.47
2019-04-20T15:32:04.154Z,4.10
2019-04-20T15:34:39.110Z,4.00
2019-04-20T15:37:14.045Z,3.62
2019-04-20T15:39:48.523Z,2.90
2019-04-20T15:42:23.348Z,2.92
2019-04-20T15:44:57.712Z,2.75
2019-04-20T15:47:32.002Z,3.05
2019-04-20T15:50:05.376Z,2.20
2019-04-20T15:52:43.213Z,2.70
2019-04-20T15:55:21.562Z,3.30
2019-04-20T15:57:48.263Z,2.90
2019-04-20T16:00:20.853Z,4.35
2019-04-20T16:03:01.364Z,3.83
2019-04-20T16:05:45.155Z,3.40
2019-04-20T16:08:30.437Z,3.17
2019-04-20T16:11:04.685Z,3.20
2019-04-20T16:13:43.694Z,3.00
2019-04-20T16:16:14.190Z,3.67
2019-04-20T16:18:48.579Z,3.67
2019-04-20T16:21:24.938Z,3.83
2019-04-20T16:24:06.547Z,3.80
2019-04-20T16:26:47.552Z,4.70
2019-04-20T16:29:21.908Z,3.45
2019-04-20T16:31:56.357Z,3.80
2019-04-20T16:34:31.670Z,3.72
2019-04-20T16:37:06.528Z,3.67
2019-04-20T16:39:40.711Z,3.92
2019-04-20T16:42:16.113Z,3.80
2019-04-20T16:44:51.513Z,4.10
2019-04-20T16:47:26.034Z,3.70
2019-04-20T16:50:01.209Z,3.98
2019-04-20T16:52:34.836Z,4.95
2019-04-20T16:55:11.213Z,6.87
2019-04-20T16:57:47.830Z,5.03
2019-04-20T17:00:23.251Z,5.22
2019-04-20T17:02:58.424Z,4.62
2019-04-20T17:05:32.198Z,4.25
2019-04-20T17:08:06.879Z,4.30
2019-04-20T17:10:41.032Z,4.72
2019-04-20T17:13:16.710Z,5.37
2019-04-20T17:15:49.979Z,5.60
2019-04-20T17:18:23.595Z,4.97
2019-04-20T17:20:56.970Z,6.35
2019-04-20T17:23:31.250Z,6.05
2019-04-20T17:26:08.085Z,6.30
2019-04-20T17:29:01.898Z,5.65
2019-04-20T17:31:57.846Z,6.15
2019-04-20T17:34:47.063Z,5.50
2019-04-20T17:37:06.874Z,6.03
2019-04-20T17:40:04.171Z,5.37
2019-04-20T17:42:33.421Z,5.80
2019-04-20T17:45:00.708Z,6.78
2019-04-20T17:47:47.340Z,7.65
2019-04-20T17:50:20.253Z,7.40
2019-04-20T17:52:53.845Z,6.95
2019-04-20T17:55:27.070Z,7.50
2019-04-20T17:57:55.220Z,8.25
2019-04-20T18:00:54.751Z,8.00
2019-04-20T18:04:05.021Z,10.15
2019-04-20T18:06:30.500Z,12.00
2019-04-20T18:08:57.181Z,11.05
2019-04-20T18:11:21.324Z,10.63
2019-04-20T18:13:58.945Z,12.07
2019-04-20T18:16:49.228Z,13.45
2019-04-20T18:19:23.877Z,10.25
2019-04-20T18:22:01.261Z,9.70
2019-04-20T18:24:56.861Z,9.85
2019-04-20T18:27:32.114Z,10.60
2019-04-20T18:30:03.755Z,10.45
2019-04-20T18:32:35.589Z,10.70
2019-04-20T18:35:14.606Z,9.80
2019-04-20T18:37:54.845Z,9.48
2019-04-20T18:40:29.224Z,10.13
2019-04-20T18:43:04.588Z,10.25
2019-04-20T18:45:48.084Z,15.32
2019-04-20T18:48:28.990Z,18.62
2019-04-20T18:50:44.196Z,20.48
2019-04-20T18:53:24.721Z,23.92
2019-04-20T18:55:55.598Z,27.05
2019-04-20T18:58:27.020Z,28.70
2019-04-20T19:01:01.137Z,28.02
2019-04-20T19:03:40.292Z,20.25
2019-04-20T19:06:11.143Z,17.82
2019-04-20T19:08:49.980Z,17.42
2019-04-20T19:11:23.178Z,22.32
2019-04-20T19:14:20.976Z,20.70
2019-04-20T19:17:04.265Z,20.62
2019-04-20T19:19:37.511Z,17.45
2019-04-20T19:22:04.382Z,14.50
2019-04-20T19:24:39.816Z,13.85
2019-04-20T19:27:15.803Z,13.30
2019-04-20T19:29:56.413Z,11.60
2019-04-20T19:32:38.013Z,11.00
2019-04-20T19:35:04.588Z,11.00
2019-04-20T19:37:35.475Z,10.95
2019-04-20T19:40:15.930Z,11.83
2019-04-20T19:42:58.729Z,11.63
2019-04-20T19:45:36.114Z,12.23
2019-04-20T19:48:07.628Z,11.75
2019-04-20T19:50:53.134Z,12.43
2019-04-20T19:53:26.693Z,13.03
2019-04-20T19:55:54.850Z,13.55
2019-04-20T19:58:28.134Z,15.53
2019-04-20T20:00:55.571Z,14.15
2019-04-20T20:03:27.891Z,14.85
2019-04-20T20:06:01.608Z,14.75
2019-04-20T20:08:36.419Z,15.15
2019-04-20T20:11:16.766Z,14.18
2019-04-20T20:13:48.588Z,14.40
2019-04-20T20:16:29.130Z,15.32
2019-04-20T20:19:07.669Z,16.70
2019-04-20T20:21:46.532Z,15.40
2019-04-20T20:24:04.217Z,15.05
2019-04-20T20:26:43.765Z,14.80
2019-04-20T20:29:22.838Z,15.15
2019-04-20T20:32:03.393Z,14.07
2019-04-20T20:34:29.092Z,16.05
2019-04-20T20:37:03.048Z,15.63
2019-04-20T20:39:35.119Z,15.13
2019-04-20T20:42:18.942Z,16.12
2019-04-20T20:44:50.622Z,15.83
2019-04-20T20:47:41.938Z,16.37
2019-04-20T20:50:13.074Z,16.90
2019-04-20T20:52:43.384Z,16.67
2019-04-20T20:55:14.734Z,17.52
2019-04-20T20:57:46.874Z,16.48
2019-04-20T21:00:34.337Z,17.82
2019-04-20T21:02:53.795Z,19.05
2019-04-20T21:05:23.892Z,23.05
2019-04-20T21:07:57.521Z,25.23
2019-04-20T21:10:35.644Z,24.90
2019-04-20T21:13:08.970Z,24.32
2019-04-20T21:15:47.373Z,23.20
2019-04-20T21:18:36.601Z,21.87
2019-04-20T21:21:06.494Z,21.05
2019-04-20T21:23:37.009Z,20.97
2019-04-20T21:26:12.751Z,21.68
2019-04-20T21:28:46.174Z,22.37
2019-04-20T21:31:24.189Z,23.35
2019-04-20T21:33:55.245Z,22.90
2019-04-20T21:36:31.448Z,22.70
2019-04-20T21:39:09.667Z,22.50
2019-04-20T21:41:49.752Z,23.02
2019-04-20T21:44:24.383Z,21.20
2019-04-20T21:46:54.991Z,22.22
2019-04-20T21:49:43.807Z,23.80
2019-04-20T21:52:15.181Z,23.22
2019-04-20T21:54:40.387Z,21.50
2019-04-20T21:57:15.057Z,21.30
2019-04-20T21:59:53.789Z,20.75
2019-04-20T22:02:32.212Z,19.45
2019-04-20T22:05:03.109Z,19.50
2019-04-20T22:07:38.678Z,18.15
2019-04-20T22:10:19.518Z,18.80
2019-04-20T22:12:54.075Z,19.15
2019-04-20T22:15:30.080Z,20.12
2019-04-20T22:18:01.158Z,18.90
2019-04-20T22:20:48.068Z,18.45
2019-04-20T22:23:23.362Z,21.68
2019-04-20T22:25:58.303Z,20.90
2019-04-20T22:28:18.190Z,19.62
2019-04-20T22:30:53.811Z,21.55
2019-04-20T22:33:41.293Z,22.07
2019-04-20T22:36:16.347Z,20.45
2019-04-20T22:39:09.590Z,22.05
2019-04-20T22:42:00.156Z,22.67
2019-04-20T22:44:28.405Z,21.95
2019-04-20T22:47:07.567Z,20.57
2019-04-20T22:49:52.939Z,19.50
2019-04-20T22:52:30.503Z,19.40
2019-04-20T22:55:11.670Z,17.98
2019-04-20T23:00:39.646Z,18.37
2019-04-20T23:03:07.393Z,18.85
2019-04-20T23:05:42.660Z,18.45
2019-04-20T23:08:17.161Z,17.15
2019-04-20T23:10:51.343Z,18.37
2019-04-20T23:13:29.432Z,19.02
2019-04-20T23:16:02.636Z,18.17
2019-04-20T23:18:36.143Z,18.45
2019-04-20T23:21:14.046Z,18.02
2019-04-20T23:23:45.734Z,17.95
2019-04-20T23:26:27.831Z,16.35
2019-04-20T23:28:58.905Z,17.55
2019-04-20T23:31:30.830Z,16.73
2019-04-20T23:34:10.107Z,15.63
2019-04-20T23:36:45.112Z,15.68
2019-04-20T23:39:17.024Z,16.17
2019-04-20T23:41:57.093Z,15.68
2019-04-20T23:44:40.125Z,16.65
2019-04-20T23:47:38.650Z,15.28
2019-04-20T23:50:30.105Z,14.03
2019-04-20T23:53:08.356Z,14.83
2019-04-20T23:55:23.782Z,14.58
2019-04-20T23:58:03.183Z,15.50
